sensor_id;sensor_type;location;lat;lon;timestamp;P1;durP1;ratioP1;P2;durP2;ratioP2
37323;SDS011;23205;49.986;18.950;2022-12-20T00:02:51;40.38;;;12.52;;
37323;SDS011;23205;49.986;18.950;2022-12-20T01:23:05;58.22;;;22.05;;
37323;SDS011;23205;49.986;18.950;2022-12-20T01:28:06;35.25;;;13.30;;
37323;SDS011;23205;49.986;18.950;2022-12-20T01:33:07;32.17;;;12.23;;
37323;SDS011;23205;49.986;18.950;2022-12-20T01:38:08;28.27;;;11.55;;
37323;SDS011;23205;49.986;18.950;2022-12-20T01:43:09;40.33;;;14.52;;
37323;SDS011;23205;49.986;18.950;2022-12-20T01:48:14;37.85;;;15.05;;
37323;SDS011;23205;49.986;18.950;2022-12-20T01:53:19;37.08;;;13.00;;
37323;SDS011;23205;49.986;18.950;2022-12-20T01:58:23;31.08;;;11.25;;
37323;SDS011;23205;49.986;18.950;2022-12-20T02:03:24;37.00;;;11.73;;
37323;SDS011;23205;49.986;18.950;2022-12-20T02:08:25;34.78;;;13.38;;
37323;SDS011;23205;49.986;18.950;2022-12-20T02:13:37;30.17;;;12.05;;
37323;SDS011;23205;49.986;18.950;2022-12-20T02:34:33;28.98;;;12.38;;
37323;SDS011;23205;49.986;18.950;2022-12-20T02:39:37;39.10;;;13.32;;
37323;SDS011;23205;49.986;18.950;2022-12-20T02:44:43;45.60;;;16.48;;
37323;SDS011;23205;49.986;18.950;2022-12-20T02:50:16;38.25;;;13.65;;
37323;SDS011;23205;49.986;18.950;2022-12-20T02:55:23;41.53;;;15.05;;
37323;SDS011;23205;49.986;18.950;2022-12-20T03:00:37;34.28;;;13.43;;
37323;SDS011;23205;49.986;18.950;2022-12-20T03:05:42;28.90;;;11.82;;
37323;SDS011;23205;49.986;18.950;2022-12-20T03:10:47;29.77;;;11.75;;
37323;SDS011;23205;49.986;18.950;2022-12-20T03:15:48;33.40;;;13.07;;
37323;SDS011;23205;49.986;18.950;2022-12-20T03:20:49;29.05;;;11.45;;
37323;SDS011;23205;49.986;18.950;2022-12-20T03:25:50;28.10;;;11.25;;
37323;SDS011;23205;49.986;18.950;2022-12-20T03:31:00;33.10;;;12.80;;
37323;SDS011;23205;49.986;18.950;2022-12-20T03:36:03;28.63;;;11.10;;
37323;SDS011;23205;49.986;18.950;2022-12-20T03:41:04;30.85;;;13.60;;
37323;SDS011;23205;49.986;18.950;2022-12-20T03:46:05;29.05;;;11.20;;
37323;SDS011;23205;49.986;18.950;2022-12-20T03:51:11;26.95;;;10.85;;
37323;SDS011;23205;49.986;18.950;2022-12-20T03:56:12;26.20;;;9.75;;
37323;SDS011;23205;49.986;18.950;2022-12-20T04:01:15;26.88;;;10.88;;
37323;SDS011;23205;49.986;18.950;2022-12-20T04:06:22;33.40;;;13.13;;
37323;SDS011;23205;49.986;18.950;2022-12-20T04:11:24;43.15;;;15.77;;
37323;SDS011;23205;49.986;18.950;2022-12-20T04:16:36;31.00;;;10.95;;
37323;SDS011;23205;49.986;18.950;2022-12-20T04:21:38;33.10;;;12.32;;
37323;SDS011;23205;49.986;18.950;2022-12-20T04:26:40;45.78;;;16.83;;
37323;SDS011;23205;49.986;18.950;2022-12-20T04:31:42;49.35;;;16.95;;
37323;SDS011;23205;49.986;18.950;2022-12-20T04:36:43;47.28;;;17.40;;
37323;SDS011;23205;49.986;18.950;2022-12-20T04:41:50;37.75;;;14.93;;
37323;SDS011;23205;49.986;18.950;2022-12-20T04:46:50;41.67;;;15.77;;
37323;SDS011;23205;49.986;18.950;2022-12-20T04:51:51;39.50;;;14.82;;
37323;SDS011;23205;49.986;18.950;2022-12-20T04:56:52;45.55;;;16.35;;
37323;SDS011;23205;49.986;18.950;2022-12-20T05:01:56;46.80;;;17.88;;
37323;SDS011;23205;49.986;18.950;2022-12-20T05:07:15;42.17;;;17.20;;
37323;SDS011;23205;49.986;18.950;2022-12-20T05:12:22;40.90;;;15.27;;
37323;SDS011;23205;49.986;18.950;2022-12-20T05:17:23;44.00;;;17.45;;
37323;SDS011;23205;49.986;18.950;2022-12-20T05:22:24;39.15;;;14.25;;
37323;SDS011;23205;49.986;18.950;2022-12-20T05:27:45;46.03;;;15.43;;
37323;SDS011;23205;49.986;18.950;2022-12-20T05:32:46;40.05;;;16.02;;
37323;SDS011;23205;49.986;18.950;2022-12-20T05:37:47;40.85;;;15.20;;
37323;SDS011;23205;49.986;18.950;2022-12-20T05:42:52;45.70;;;16.58;;
37323;SDS011;23205;49.986;18.950;2022-12-20T05:47:54;42.72;;;15.98;;
37323;SDS011;23205;49.986;18.950;2022-12-20T05:52:55;53.05;;;19.17;;
37323;SDS011;23205;49.986;18.950;2022-12-20T05:57:59;43.88;;;14.68;;
37323;SDS011;23205;49.986;18.950;2022-12-20T06:03:17;40.65;;;14.35;;
37323;SDS011;23205;49.986;18.950;2022-12-20T06:08:19;42.33;;;16.42;;
37323;SDS011;23205;49.986;18.950;2022-12-20T06:13:21;51.13;;;18.17;;
37323;SDS011;23205;49.986;18.950;2022-12-20T06:18:24;43.95;;;16.58;;
37323;SDS011;23205;49.986;18.950;2022-12-20T06:23:30;47.35;;;18.25;;
37323;SDS011;23205;49.986;18.950;2022-12-20T06:28:38;40.55;;;15.77;;
37323;SDS011;23205;49.986;18.950;2022-12-20T06:33:42;45.35;;;17.48;;
37323;SDS011;23205;49.986;18.950;2022-12-20T06:38:44;52.08;;;20.08;;
37323;SDS011;23205;49.986;18.950;2022-12-20T06:43:45;51.08;;;18.15;;
37323;SDS011;23205;49.986;18.950;2022-12-20T06:48:46;47.78;;;18.65;;
37323;SDS011;23205;49.986;18.950;2022-12-20T06:53:48;51.00;;;19.17;;
37323;SDS011;23205;49.986;18.950;2022-12-20T06:58:49;62.65;;;21.17;;
37323;SDS011;23205;49.986;18.950;2022-12-20T07:03:50;54.67;;;20.67;;
37323;SDS011;23205;49.986;18.950;2022-12-20T07:08:50;58.22;;;22.00;;
37323;SDS011;23205;49.986;18.950;2022-12-20T07:13:55;60.25;;;22.58;;
37323;SDS011;23205;49.986;18.950;2022-12-20T07:18:56;66.20;;;24.35;;
37323;SDS011;23205;49.986;18.950;2022-12-20T07:23:57;51.63;;;19.13;;
37323;SDS011;23205;49.986;18.950;2022-12-20T07:28:58;62.85;;;23.35;;
37323;SDS011;23205;49.986;18.950;2022-12-20T07:33:59;56.67;;;23.25;;
37323;SDS011;23205;49.986;18.950;2022-12-20T07:39:00;64.13;;;22.70;;
37323;SDS011;23205;49.986;18.950;2022-12-20T07:44:00;71.95;;;26.52;;
37323;SDS011;23205;49.986;18.950;2022-12-20T07:49:01;70.45;;;27.23;;
37323;SDS011;23205;49.986;18.950;2022-12-20T07:54:03;70.63;;;26.45;;
37323;SDS011;23205;49.986;18.950;2022-12-20T07:59:09;72.47;;;25.05;;
37323;SDS011;23205;49.986;18.950;2022-12-20T08:04:14;63.03;;;22.77;;
37323;SDS011;23205;49.986;18.950;2022-12-20T08:09:18;58.92;;;23.48;;
37323;SDS011;23205;49.986;18.950;2022-12-20T08:14:19;59.35;;;22.45;;
37323;SDS011;23205;49.986;18.950;2022-12-20T08:19:20;57.88;;;22.15;;
37323;SDS011;23205;49.986;18.950;2022-12-20T08:24:21;61.40;;;22.40;;
37323;SDS011;23205;49.986;18.950;2022-12-20T08:29:22;53.90;;;20.58;;
37323;SDS011;23205;49.986;18.950;2022-12-20T08:34:23;57.22;;;22.73;;
37323;SDS011;23205;49.986;18.950;2022-12-20T08:39:24;57.78;;;20.63;;
37323;SDS011;23205;49.986;18.950;2022-12-20T08:44:24;57.63;;;22.40;;
37323;SDS011;23205;49.986;18.950;2022-12-20T08:49:25;54.85;;;22.38;;
37323;SDS011;23205;49.986;18.950;2022-12-20T08:54:26;64.68;;;23.33;;
37323;SDS011;23205;49.986;18.950;2022-12-20T08:59:27;55.22;;;21.45;;
37323;SDS011;23205;49.986;18.950;2022-12-20T09:04:28;51.08;;;20.13;;
37323;SDS011;23205;49.986;18.950;2022-12-20T09:09:28;57.38;;;20.65;;
37323;SDS011;23205;49.986;18.950;2022-12-20T09:14:29;60.83;;;22.75;;
37323;SDS011;23205;49.986;18.950;2022-12-20T09:19:30;75.55;;;26.58;;
37323;SDS011;23205;49.986;18.950;2022-12-20T09:24:31;65.65;;;25.00;;
37323;SDS011;23205;49.986;18.950;2022-12-20T09:29:32;61.35;;;21.95;;
37323;SDS011;23205;49.986;18.950;2022-12-20T09:34:32;65.70;;;24.30;;
37323;SDS011;23205;49.986;18.950;2022-12-20T09:39:33;55.00;;;23.00;;
37323;SDS011;23205;49.986;18.950;2022-12-20T09:44:35;56.20;;;22.38;;
37323;SDS011;23205;49.986;18.950;2022-12-20T09:49:40;55.22;;;21.27;;
37323;SDS011;23205;49.986;18.950;2022-12-20T10:00:13;59.90;;;23.52;;
37323;SDS011;23205;49.986;18.950;2022-12-20T10:05:16;60.33;;;22.52;;
37323;SDS011;23205;49.986;18.950;2022-12-20T10:10:50;61.38;;;23.27;;
37323;SDS011;23205;49.986;18.950;2022-12-20T10:16:06;63.28;;;24.55;;
37323;SDS011;23205;49.986;18.950;2022-12-20T10:26:21;61.83;;;25.55;;
37323;SDS011;23205;49.986;18.950;2022-12-20T10:31:22;64.63;;;24.73;;
37323;SDS011;23205;49.986;18.950;2022-12-20T10:36:32;55.85;;;22.48;;
37323;SDS011;23205;49.986;18.950;2022-12-20T10:51:51;55.58;;;22.40;;
37323;SDS011;23205;49.986;18.950;2022-12-20T10:56:57;58.00;;;22.95;;
37323;SDS011;23205;49.986;18.950;2022-12-20T11:02:02;61.58;;;23.83;;
37323;SDS011;23205;49.986;18.950;2022-12-20T11:07:34;56.55;;;21.52;;
37323;SDS011;23205;49.986;18.950;2022-12-20T11:12:35;61.05;;;24.83;;
37323;SDS011;23205;49.986;18.950;2022-12-20T11:17:36;62.20;;;24.95;;
37323;SDS011;23205;49.986;18.950;2022-12-20T11:33:05;55.47;;;21.48;;
37323;SDS011;23205;49.986;18.950;2022-12-20T11:44:41;55.85;;;21.80;;
37323;SDS011;23205;49.986;18.950;2022-12-20T11:54:44;53.55;;;20.42;;
37323;SDS011;23205;49.986;18.950;2022-12-20T11:59:53;54.88;;;22.55;;
37323;SDS011;23205;49.986;18.950;2022-12-20T12:04:59;59.50;;;23.17;;
37323;SDS011;23205;49.986;18.950;2022-12-20T12:10:12;53.40;;;24.08;;
37323;SDS011;23205;49.986;18.950;2022-12-20T12:15:35;52.28;;;21.23;;
37323;SDS011;23205;49.986;18.950;2022-12-20T12:21:15;54.03;;;22.75;;
37323;SDS011;23205;49.986;18.950;2022-12-20T12:26:28;53.97;;;25.60;;
37323;SDS011;23205;49.986;18.950;2022-12-20T12:46:53;49.70;;;19.15;;
37323;SDS011;23205;49.986;18.950;2022-12-20T12:52:02;53.00;;;20.90;;
37323;SDS011;23205;49.986;18.950;2022-12-20T13:17:44;50.83;;;20.17;;
37323;SDS011;23205;49.986;18.950;2022-12-20T13:33:37;58.28;;;22.67;;
37323;SDS011;23205;49.986;18.950;2022-12-20T13:38:49;56.88;;;20.77;;
37323;SDS011;23205;49.986;18.950;2022-12-20T13:43:52;51.55;;;18.85;;
37323;SDS011;23205;49.986;18.950;2022-12-20T13:48:55;51.45;;;20.30;;
37323;SDS011;23205;49.986;18.950;2022-12-20T13:54:03;45.17;;;19.67;;
37323;SDS011;23205;49.986;18.950;2022-12-20T13:59:12;52.42;;;20.52;;
37323;SDS011;23205;49.986;18.950;2022-12-20T14:04:17;53.53;;;22.08;;
37323;SDS011;23205;49.986;18.950;2022-12-20T14:09:32;56.90;;;21.05;;
37323;SDS011;23205;49.986;18.950;2022-12-20T14:14:37;57.80;;;22.45;;
37323;SDS011;23205;49.986;18.950;2022-12-20T14:20:05;56.83;;;21.88;;
37323;SDS011;23205;49.986;18.950;2022-12-20T14:25:07;57.97;;;24.00;;
37323;SDS011;23205;49.986;18.950;2022-12-20T14:30:24;61.08;;;23.40;;
37323;SDS011;23205;49.986;18.950;2022-12-20T14:35:31;60.15;;;23.40;;
37323;SDS011;23205;49.986;18.950;2022-12-20T14:40:36;63.05;;;23.42;;
37323;SDS011;23205;49.986;18.950;2022-12-20T14:45:41;71.80;;;25.45;;
37323;SDS011;23205;49.986;18.950;2022-12-20T14:50:49;61.95;;;24.00;;
37323;SDS011;23205;49.986;18.950;2022-12-20T14:55:52;63.58;;;24.23;;
37323;SDS011;23205;49.986;18.950;2022-12-20T15:01:00;57.10;;;22.90;;
37323;SDS011;23205;49.986;18.950;2022-12-20T15:11:36;56.88;;;22.35;;
37323;SDS011;23205;49.986;18.950;2022-12-20T15:16:38;62.00;;;24.73;;
37323;SDS011;23205;49.986;18.950;2022-12-20T15:21:47;57.83;;;22.00;;
37323;SDS011;23205;49.986;18.950;2022-12-20T15:26:50;60.85;;;22.58;;
37323;SDS011;23205;49.986;18.950;2022-12-20T15:32:05;56.00;;;21.67;;
37323;SDS011;23205;49.986;18.950;2022-12-20T15:37:28;63.97;;;23.52;;
37323;SDS011;23205;49.986;18.950;2022-12-20T15:42:29;66.10;;;28.75;;
37323;SDS011;23205;49.986;18.950;2022-12-20T15:47:30;68.05;;;27.48;;
37323;SDS011;23205;49.986;18.950;2022-12-20T15:52:30;82.38;;;29.95;;
37323;SDS011;23205;49.986;18.950;2022-12-20T15:57:32;62.45;;;25.45;;
37323;SDS011;23205;49.986;18.950;2022-12-20T16:02:33;68.30;;;26.67;;
37323;SDS011;23205;49.986;18.950;2022-12-20T16:07:34;71.82;;;26.08;;
37323;SDS011;23205;49.986;18.950;2022-12-20T16:12:35;68.07;;;25.50;;
37323;SDS011;23205;49.986;18.950;2022-12-20T16:17:36;74.38;;;29.17;;
37323;SDS011;23205;49.986;18.950;2022-12-20T16:22:37;79.60;;;29.70;;
37323;SDS011;23205;49.986;18.950;2022-12-20T16:27:38;75.10;;;31.77;;
37323;SDS011;23205;49.986;18.950;2022-12-20T16:32:39;79.13;;;29.88;;
37323;SDS011;23205;49.986;18.950;2022-12-20T16:37:39;83.43;;;32.03;;
37323;SDS011;23205;49.986;18.950;2022-12-20T16:42:40;76.82;;;29.50;;
37323;SDS011;23205;49.986;18.950;2022-12-20T16:47:41;76.70;;;30.27;;
37323;SDS011;23205;49.986;18.950;2022-12-20T16:52:44;94.05;;;33.17;;
37323;SDS011;23205;49.986;18.950;2022-12-20T16:57:45;78.38;;;30.90;;
37323;SDS011;23205;49.986;18.950;2022-12-20T17:02:46;68.28;;;27.30;;
37323;SDS011;23205;49.986;18.950;2022-12-20T17:07:48;69.78;;;26.20;;
37323;SDS011;23205;49.986;18.950;2022-12-20T17:12:49;74.38;;;27.98;;
37323;SDS011;23205;49.986;18.950;2022-12-20T17:17:51;72.72;;;27.70;;
37323;SDS011;23205;49.986;18.950;2022-12-20T17:22:53;77.10;;;30.55;;
37323;SDS011;23205;49.986;18.950;2022-12-20T17:27:55;83.90;;;31.17;;
37323;SDS011;23205;49.986;18.950;2022-12-20T17:32:56;83.85;;;31.75;;
37323;SDS011;23205;49.986;18.950;2022-12-20T17:37:57;80.47;;;30.70;;
37323;SDS011;23205;49.986;18.950;2022-12-20T17:42:59;86.05;;;31.45;;
37323;SDS011;23205;49.986;18.950;2022-12-20T17:48:00;91.35;;;32.03;;
37323;SDS011;23205;49.986;18.950;2022-12-20T17:53:01;75.80;;;29.77;;
37323;SDS011;23205;49.986;18.950;2022-12-20T17:58:03;79.82;;;29.20;;
37323;SDS011;23205;49.986;18.950;2022-12-20T18:03:03;74.30;;;26.90;;
37323;SDS011;23205;49.986;18.950;2022-12-20T18:08:04;76.45;;;29.65;;
37323;SDS011;23205;49.986;18.950;2022-12-20T18:13:05;84.88;;;31.48;;
37323;SDS011;23205;49.986;18.950;2022-12-20T18:18:06;81.07;;;30.77;;
37323;SDS011;23205;49.986;18.950;2022-12-20T18:23:06;78.75;;;29.85;;
37323;SDS011;23205;49.986;18.950;2022-12-20T18:28:07;86.28;;;31.40;;
37323;SDS011;23205;49.986;18.950;2022-12-20T18:33:08;84.65;;;30.45;;
37323;SDS011;23205;49.986;18.950;2022-12-20T18:38:11;76.45;;;28.60;;
37323;SDS011;23205;49.986;18.950;2022-12-20T18:43:20;86.25;;;31.70;;
37323;SDS011;23205;49.986;18.950;2022-12-20T18:48:23;84.35;;;30.10;;
37323;SDS011;23205;49.986;18.950;2022-12-20T18:53:26;79.20;;;30.63;;
37323;SDS011;23205;49.986;18.950;2022-12-20T18:58:32;80.57;;;31.02;;
37323;SDS011;23205;49.986;18.950;2022-12-20T19:03:34;83.38;;;32.97;;
37323;SDS011;23205;49.986;18.950;2022-12-20T19:08:37;84.20;;;32.88;;
37323;SDS011;23205;49.986;18.950;2022-12-20T19:13:43;85.60;;;31.95;;
37323;SDS011;23205;49.986;18.950;2022-12-20T19:18:47;84.85;;;31.05;;
37323;SDS011;23205;49.986;18.950;2022-12-20T19:23:50;82.50;;;32.47;;
37323;SDS011;23205;49.986;18.950;2022-12-20T19:28:59;81.30;;;31.87;;
37323;SDS011;23205;49.986;18.950;2022-12-20T19:34:01;72.90;;;29.65;;
37323;SDS011;23205;49.986;18.950;2022-12-20T19:39:04;81.53;;;31.70;;
37323;SDS011;23205;49.986;18.950;2022-12-20T19:44:06;79.85;;;31.70;;
37323;SDS011;23205;49.986;18.950;2022-12-20T19:49:08;100.35;;;37.45;;
37323;SDS011;23205;49.986;18.950;2022-12-20T19:54:09;82.40;;;33.35;;
37323;SDS011;23205;49.986;18.950;2022-12-20T19:59:10;103.90;;;35.60;;
37323;SDS011;23205;49.986;18.950;2022-12-20T20:04:12;80.03;;;31.20;;
37323;SDS011;23205;49.986;18.950;2022-12-20T20:09:13;95.72;;;34.58;;
37323;SDS011;23205;49.986;18.950;2022-12-20T20:14:14;80.22;;;29.75;;
37323;SDS011;23205;49.986;18.950;2022-12-20T20:19:15;78.43;;;32.17;;
37323;SDS011;23205;49.986;18.950;2022-12-20T20:24:16;84.10;;;31.67;;
37323;SDS011;23205;49.986;18.950;2022-12-20T20:29:16;83.13;;;31.88;;
37323;SDS011;23205;49.986;18.950;2022-12-20T20:34:18;96.38;;;33.35;;
37323;SDS011;23205;49.986;18.950;2022-12-20T20:39:18;82.53;;;31.15;;
37323;SDS011;23205;49.986;18.950;2022-12-20T20:44:19;99.47;;;34.67;;
37323;SDS011;23205;49.986;18.950;2022-12-20T20:49:20;83.25;;;31.30;;
37323;SDS011;23205;49.986;18.950;2022-12-20T20:54:21;92.15;;;33.17;;
37323;SDS011;23205;49.986;18.950;2022-12-20T20:59:21;87.45;;;30.73;;
37323;SDS011;23205;49.986;18.950;2022-12-20T21:04:22;92.35;;;37.22;;
37323;SDS011;23205;49.986;18.950;2022-12-20T21:09:23;75.25;;;29.65;;
37323;SDS011;23205;49.986;18.950;2022-12-20T21:14:24;77.03;;;29.60;;
37323;SDS011;23205;49.986;18.950;2022-12-20T21:19:24;78.88;;;29.35;;
37323;SDS011;23205;49.986;18.950;2022-12-20T21:24:25;75.22;;;29.73;;
37323;SDS011;23205;49.986;18.950;2022-12-20T21:29:26;79.55;;;31.02;;
37323;SDS011;23205;49.986;18.950;2022-12-20T21:34:27;84.97;;;30.00;;
37323;SDS011;23205;49.986;18.950;2022-12-20T21:39:28;75.22;;;29.98;;
37323;SDS011;23205;49.986;18.950;2022-12-20T21:44:29;70.80;;;27.00;;
37323;SDS011;23205;49.986;18.950;2022-12-20T21:49:30;75.60;;;27.63;;
37323;SDS011;23205;49.986;18.950;2022-12-20T21:54:31;68.65;;;25.90;;
37323;SDS011;23205;49.986;18.950;2022-12-20T21:59:32;74.47;;;27.77;;
37323;SDS011;23205;49.986;18.950;2022-12-20T22:04:32;64.97;;;27.35;;
37323;SDS011;23205;49.986;18.950;2022-12-20T22:09:34;75.70;;;27.95;;
37323;SDS011;23205;49.986;18.950;2022-12-20T22:14:35;67.40;;;27.15;;
37323;SDS011;23205;49.986;18.950;2022-12-20T22:19:36;68.55;;;27.02;;
37323;SDS011;23205;49.986;18.950;2022-12-20T22:24:37;67.10;;;25.95;;
37323;SDS011;23205;49.986;18.950;2022-12-20T22:29:38;74.53;;;27.80;;
37323;SDS011;23205;49.986;18.950;2022-12-20T22:34:38;83.25;;;30.75;;
37323;SDS011;23205;49.986;18.950;2022-12-20T22:39:39;85.85;;;29.95;;
37323;SDS011;23205;49.986;18.950;2022-12-20T22:44:40;80.03;;;31.20;;
37323;SDS011;23205;49.986;18.950;2022-12-20T22:49:41;86.63;;;31.60;;
37323;SDS011;23205;49.986;18.950;2022-12-20T22:54:42;82.85;;;31.67;;
37323;SDS011;23205;49.986;18.950;2022-12-20T22:59:43;74.43;;;28.52;;
37323;SDS011;23205;49.986;18.950;2022-12-20T23:04:44;81.85;;;28.30;;
37323;SDS011;23205;49.986;18.950;2022-12-20T23:09:45;79.43;;;28.58;;
37323;SDS011;23205;49.986;18.950;2022-12-20T23:14:46;70.88;;;27.45;;
37323;SDS011;23205;49.986;18.950;2022-12-20T23:20:06;70.57;;;27.48;;
37323;SDS011;23205;49.986;18.950;2022-12-20T23:30:26;69.85;;;23.77;;
37323;SDS011;23205;49.986;18.950;2022-12-20T23:35:27;61.33;;;24.27;;
37323;SDS011;23205;49.986;18.950;2022-12-20T23:40:48;67.78;;;26.70;;
37323;SDS011;23205;49.986;18.950;2022-12-20T23:50:55;72.82;;;27.90;;
37323;SDS011;23205;49.986;18.950;2022-12-20T23:55:57;69.00;;;25.85;;
